Time;durP1;ratioP1;P1;durP2;ratioP2;P2;SDS_P1;SDS_P2;PMS_P1;PMS_P2;Temp;Humidity;BMP_temperature;BMP_pressure;BME280_temperature;BME280_humidity;BME280_pressure;Samples;Min_cycle;Max_cycle;Signal;HPM_P1;HPM_P2
2021/08/28 00:01:18;;;;;;;;;;;12.50;99.90;;;;;;5016296;28;20032;-73
2021/08/28 00:03:50;;;;;;;;;;;12.40;99.90;;;;;;5034072;28;20015;-73
2021/08/28 00:06:16;;;;;;;;;;;12.40;99.90;;;;;;5033718;28;19934;-73
2021/08/28 00:08:48;;;;;;;;;;;12.50;99.90;;;;;;5016270;28;19971;-73
2021/08/28 00:11:20;;;;;;;;;;;12.40;99.90;;;;;;5016911;28;19931;-73
2021/08/28 00:13:52;;;;;;;;;;;12.50;99.90;;;;;;5016145;28;19979;-74
2021/08/28 00:16:23;;;;;;;;;;;12.50;99.90;;;;;;5033581;28;20003;-73
2021/08/28 00:18:50;;;;;;;;;;;12.50;99.90;;;;;;4999842;28;19925;-74
2021/08/28 00:21:22;;;;;;;;;;;12.50;99.90;;;;;;5033739;28;20396;-73
2021/08/28 00:23:53;;;;;;;;;;;12.50;99.90;;;;;;5015888;28;19925;-73
2021/08/28 00:26:25;;;;;;;;;;;12.40;99.90;;;;;;5000046;28;20031;-73
2021/08/28 00:28:52;;;;;;;;;;;12.40;99.90;;;;;;4999647;28;19958;-73
2021/08/28 00:31:23;;;;;;;;;;;12.40;99.90;;;;;;5015812;28;19956;-74
2021/08/28 00:33:50;;;;;;;;;;;12.30;99.90;;;;;;5015740;28;19925;-72
2021/08/28 00:36:22;;;;;;;;;;;12.40;99.90;;;;;;5032929;28;19949;-73
2021/08/28 00:38:53;;;;;;;;;;;12.40;99.90;;;;;;5015695;28;19925;-74
2021/08/28 00:41:25;;;;;;;;;;;12.30;99.90;;;;;;5033517;28;19929;-72
2021/08/28 00:43:52;;;;;;;;;;;12.40;99.90;;;;;;5015638;28;19960;-74
2021/08/28 00:46:19;;;;;;;;;;;12.30;99.90;;;;;;5015093;28;19931;-73
2021/08/28 00:48:46;;;;;;;;;;;12.40;99.90;;;;;;5015388;28;19960;-73
2021/08/28 00:51:17;;;;;;;;;;;12.30;99.90;;;;;;5014656;28;20379;-73
2021/08/28 00:53:45;;;;;;;;;;;12.30;99.90;;;;;;5015482;28;20040;-73
2021/08/28 00:56:12;;;;;;;;;;;12.30;99.90;;;;;;4998875;28;20000;-73
2021/08/28 00:58:43;;;;;;;;;;;12.20;99.90;;;;;;5015129;28;19925;-73
2021/08/28 01:01:12;;;;;;;;;;;12.20;99.90;;;;;;5032367;28;20438;-72
2021/08/28 01:03:45;;;;;;;;;;;12.20;99.90;;;;;;5032413;28;19925;-73
2021/08/28 01:06:31;;;;;;;;;;;12.20;99.90;;;;;;5015205;28;20372;-73
2021/08/28 01:09:26;;;;;;;;;;;12.20;99.90;;;;;;5014430;28;19931;-73
2021/08/28 01:12:37;;;;;;;;;;;12.20;99.90;;;;;;5016286;28;20411;-73
2021/08/28 01:15:12;;;;;;;;;;;12.20;99.90;;;;;;5014146;28;19925;-73
2021/08/28 01:17:47;;;;;;;;;;;12.30;99.90;;;;;;5014614;28;20040;-73
2021/08/28 01:20:23;;;;;;;;;;;12.30;99.90;;;;;;5014481;28;19968;-73
2021/08/28 01:23:18;;;;;;;;;;;12.30;99.90;;;;;;4990685;28;19925;-73
2021/08/28 01:26:09;;;;;;;;;;;12.30;99.90;;;;;;5015115;28;20367;-72
2021/08/28 01:28:43;;;;;;;;;;;12.30;99.90;;;;;;5014768;28;20213;-73
2021/08/28 01:31:16;;;;;;;;;;;12.40;99.90;;;;;;5014737;28;19971;-73
2021/08/28 01:33:49;;;;;;;;;;;12.30;99.90;;;;;;5014599;28;19947;-72
2021/08/28 01:36:23;;;;;;;;;;;12.30;99.90;;;;;;5013923;28;19925;-73
2021/08/28 01:39:10;;;;;;;;;;;12.30;99.90;;;;;;5013929;28;19935;-73
2021/08/28 01:41:45;;;;;;;;;;;12.30;99.90;;;;;;5013982;28;19933;-73
2021/08/28 01:44:17;;;;;;;;;;;12.30;99.90;;;;;;5013921;28;19971;-73
2021/08/28 01:46:50;;;;;;;;;;;12.30;99.90;;;;;;5013694;28;19932;-73
2021/08/28 01:49:23;;;;;;;;;;;12.30;99.90;;;;;;5032213;28;19925;-74
2021/08/28 01:51:50;;;;;;;;;;;12.30;99.90;;;;;;5014405;28;20398;-74
2021/08/28 01:54:25;;;;;;;;;;;12.30;99.90;;;;;;5014372;28;19939;-74
2021/08/28 01:56:57;;;;;;;;;;;12.20;99.90;;;;;;5013597;28;19925;-73
2021/08/28 01:59:33;;;;;;;;;;;12.20;99.90;;;;;;5014356;28;19931;-73
2021/08/28 02:02:18;;;;;;;;;;;12.20;99.90;;;;;;5017070;28;20410;-73
2021/08/28 02:04:54;;;;;;;;;;;12.20;99.90;;;;;;5013965;28;19932;-73
2021/08/28 02:07:35;;;;;;;;;;;12.20;99.90;;;;;;5014184;28;19931;-73
2021/08/28 02:10:27;;;;;;;;;;;12.20;99.90;;;;;;5014194;28;19983;-73
2021/08/28 02:13:01;;;;;;;;;;;12.20;99.90;;;;;;5014200;28;19948;-73
2021/08/28 02:15:38;;;;;;;;;;;12.10;99.90;;;;;;5013826;28;19925;-74
2021/08/28 02:18:24;;;;;;;;;;;12.10;99.90;;;;;;4998513;28;19933;-73
2021/08/28 02:21:06;;;;;;;;;;;12.20;99.90;;;;;;5014149;28;19931;-73
2021/08/28 02:23:50;;;;;;;;;;;12.10;99.90;;;;;;5014210;28;20036;-74
2021/08/28 02:26:29;;;;;;;;;;;12.10;99.90;;;;;;5014088;28;20008;-74
2021/08/28 02:28:59;;;;;;;;;;;12.20;99.90;;;;;;5013801;28;19932;-74
2021/08/28 02:31:33;;;;;;;;;;;12.10;99.90;;;;;;4998457;28;19932;-73
2021/08/28 02:34:04;;;;;;;;;;;12.10;99.90;;;;;;5014913;28;19926;-73
2021/08/28 02:36:38;;;;;;;;;;;12.20;99.90;;;;;;4998208;28;20438;-73
2021/08/28 02:39:12;;;;;;;;;;;12.10;99.90;;;;;;4998541;28;20024;-74
2021/08/28 02:41:46;;;;;;;;;;;12.10;99.90;;;;;;4998848;28;19931;-74
2021/08/28 02:44:19;;;;;;;;;;;12.10;99.90;;;;;;5013990;28;19957;-74
2021/08/28 02:46:53;;;;;;;;;;;12.20;99.90;;;;;;5013650;28;20300;-74
2021/08/28 02:49:21;;;;;;;;;;;12.10;99.90;;;;;;4997903;28;20273;-74
2021/08/28 02:51:54;;;;;;;;;;;12.10;99.90;;;;;;5013941;28;19968;-74
2021/08/28 02:54:25;;;;;;;;;;;12.10;99.90;;;;;;5013919;28;19925;-74
2021/08/28 02:56:57;;;;;;;;;;;12.10;99.90;;;;;;4998061;28;20024;-74
2021/08/28 02:59:30;;;;;;;;;;;12.10;99.90;;;;;;4998199;28;19956;-73
2021/08/28 03:02:04;;;;;;;;;;;12.10;99.90;;;;;;5013977;28;20554;-73
2021/08/28 03:04:39;;;;;;;;;;;12.20;99.90;;;;;;4998179;28;19929;-73
2021/08/28 03:07:11;;;;;;;;;;;12.20;99.90;;;;;;5013292;28;19925;-74
2021/08/28 03:09:39;;;;;;;;;;;12.20;99.90;;;;;;5013607;28;20008;-74
2021/08/28 03:12:10;;;;;;;;;;;12.20;99.90;;;;;;4998193;28;19925;-74
2021/08/28 03:14:42;;;;;;;;;;;12.20;99.90;;;;;;5015779;28;19964;-74
2021/08/28 03:17:15;;;;;;;;;;;12.20;99.90;;;;;;5017020;28;20363;-74
2021/08/28 03:19:48;;;;;;;;;;;12.10;99.90;;;;;;5001610;28;19960;-74
2021/08/28 03:22:17;;;;;;;;;;;12.10;99.90;;;;;;5017181;28;20463;-73
2021/08/28 03:24:47;;;;;;;;;;;12.10;99.90;;;;;;5017178;28;19925;-73
2021/08/28 03:27:21;;;;;;;;;;;12.10;99.90;;;;;;5001135;28;20295;-73
2021/08/28 03:29:54;;;;;;;;;;;12.10;99.90;;;;;;5001760;28;19924;-73
2021/08/28 03:32:21;;;;;;;;;;;12.10;99.90;;;;;;5000775;28;19925;-74
2021/08/28 03:34:53;;;;;;;;;;;12.10;99.90;;;;;;5016835;28;20426;-73
2021/08/28 03:37:25;;;;;;;;;;;12.10;99.90;;;;;;5016497;28;20387;-74
2021/08/28 03:39:57;;;;;;;;;;;12.20;99.90;;;;;;5016983;28;19929;-74
2021/08/28 03:42:29;;;;;;;;;;;12.20;99.90;;;;;;5016855;28;19995;-73
2021/08/28 03:45:04;;;;;;;;;;;12.20;99.90;;;;;;5016784;28;19929;-74
2021/08/28 03:47:43;;;;;;;;;;;12.20;99.90;;;;;;5016788;28;19925;-74
2021/08/28 03:50:16;;;;;;;;;;;12.20;99.90;;;;;;5016629;28;19940;-74
2021/08/28 03:52:52;;;;;;;;;;;12.20;99.90;;;;;;5016811;28;20399;-73
2021/08/28 03:55:24;;;;;;;;;;;12.20;99.90;;;;;;5016245;28;19979;-74
2021/08/28 03:57:57;;;;;;;;;;;12.20;99.90;;;;;;5016601;28;20406;-74
2021/08/28 04:00:27;;;;;;;;;;;12.20;99.90;;;;;;5016602;28;19931;-74
2021/08/28 04:02:59;;;;;;;;;;;12.20;99.90;;;;;;5016494;28;19929;-73
2021/08/28 04:05:31;;;;;;;;;;;12.20;99.90;;;;;;5000478;28;19925;-74
2021/08/28 04:08:05;;;;;;;;;;;12.20;99.90;;;;;;5001217;28;20285;-74
2021/08/28 04:10:36;;;;;;;;;;;12.20;99.90;;;;;;5016171;28;19960;-73
2021/08/28 04:13:03;;;;;;;;;;;12.20;99.90;;;;;;5016116;28;19925;-74
2021/08/28 04:15:35;;;;;;;;;;;12.10;99.90;;;;;;5015926;28;19929;-74
2021/08/28 04:18:18;;;;;;;;;;;12.10;99.90;;;;;;5016276;28;20387;-73
2021/08/28 04:20:56;;;;;;;;;;;12.10;99.90;;;;;;5001473;28;19929;-73
2021/08/28 04:23:37;;;;;;;;;;;12.10;99.90;;;;;;5015987;28;19929;-74
2021/08/28 04:26:32;;;;;;;;;;;12.10;99.90;;;;;;5018716;28;19926;-73
2021/08/28 04:29:04;;;;;;;;;;;12.10;99.90;;;;;;5015637;28;19925;-74
2021/08/28 04:31:31;;;;;;;;;;;12.10;99.90;;;;;;5015850;28;19925;-74
2021/08/28 04:34:02;;;;;;;;;;;12.20;99.90;;;;;;5015770;28;19925;-74
2021/08/28 04:36:29;;;;;;;;;;;12.20;99.90;;;;;;5015534;28;19925;-74
2021/08/28 04:39:01;;;;;;;;;;;12.10;99.90;;;;;;5000232;28;19995;-74
2021/08/28 04:41:33;;;;;;;;;;;12.20;99.90;;;;;;5015771;28;19964;-74
2021/08/28 04:44:00;;;;;;;;;;;12.20;99.90;;;;;;5015738;28;20395;-73
2021/08/28 04:46:40;;;;;;;;;;;12.20;99.90;;;;;;5017518;28;20395;-74
2021/08/28 04:49:13;;;;;;;;;;;12.20;99.90;;;;;;5015462;28;19971;-74
2021/08/28 04:52:00;;;;;;;;;;;12.20;99.90;;;;;;5015564;28;19991;-74
2021/08/28 04:54:32;;;;;;;;;;;12.20;99.90;;;;;;5015502;28;20343;-74
2021/08/28 04:56:58;;;;;;;;;;;12.20;99.90;;;;;;4998786;28;19933;-74
2021/08/28 04:59:26;;;;;;;;;;;12.20;99.90;;;;;;4999352;28;20324;-73
2021/08/28 05:02:25;;;;;;;;;;;12.20;99.90;;;;;;5010117;28;19925;-74
2021/08/28 05:05:03;;;;;;;;;;;12.20;99.90;;;;;;5015006;28;19980;-73
2021/08/28 05:07:36;;;;;;;;;;;12.30;99.90;;;;;;4999551;28;19925;-75
2021/08/28 05:10:08;;;;;;;;;;;12.30;99.90;;;;;;5015156;28;19933;-74
2021/08/28 05:12:36;;;;;;;;;;;12.30;99.90;;;;;;4999073;28;20016;-74
2021/08/28 05:15:15;;;;;;;;;;;12.30;99.90;;;;;;5014875;28;19925;-74
2021/08/28 05:17:51;;;;;;;;;;;12.30;99.90;;;;;;5014943;28;20392;-73
2021/08/28 05:20:24;;;;;;;;;;;12.40;99.90;;;;;;5015056;28;19925;-74
2021/08/28 05:23:14;;;;;;;;;;;12.40;99.90;;;;;;5018578;28;20398;-74
2021/08/28 05:25:56;;;;;;;;;;;12.50;99.90;;;;;;5016887;28;19925;-73
2021/08/28 05:28:31;;;;;;;;;;;12.50;99.90;;;;;;5014709;28;19932;-73
2021/08/28 05:30:58;;;;;;;;;;;12.50;99.90;;;;;;4998611;28;19936;-73
2021/08/28 05:33:31;;;;;;;;;;;12.50;99.90;;;;;;5014887;28;19975;-74
2021/08/28 05:36:07;;;;;;;;;;;12.50;99.90;;;;;;5014455;28;19925;-74
2021/08/28 05:38:55;;;;;;;;;;;12.50;99.90;;;;;;5032256;28;19929;-73
2021/08/28 05:41:27;;;;;;;;;;;12.60;99.90;;;;;;5014721;28;20416;-73
2021/08/28 05:43:59;;;;;;;;;;;12.60;99.90;;;;;;5014528;28;19956;-74
2021/08/28 05:46:36;;;;;;;;;;;12.60;99.90;;;;;;5014334;28;19935;-73
2021/08/28 05:49:18;;;;;;;;;;;12.60;99.90;;;;;;5014325;28;19929;-74
2021/08/28 05:51:54;;;;;;;;;;;12.60;99.90;;;;;;5014523;28;19925;-73
2021/08/28 05:54:20;;;;;;;;;;;12.50;99.90;;;;;;5014472;28;19929;-73
2021/08/28 05:56:53;;;;;;;;;;;12.50;99.90;;;;;;5014221;28;19925;-73
2021/08/28 05:59:24;;;;;;;;;;;12.50;99.90;;;;;;5014262;28;19972;-74
2021/08/28 06:01:59;;;;;;;;;;;12.40;99.90;;;;;;4999476;28;19925;-74
2021/08/28 06:04:27;;;;;;;;;;;12.50;99.90;;;;;;5014102;28;20011;-73
2021/08/28 06:07:08;;;;;;;;;;;12.50;99.90;;;;;;5031858;28;19931;-74
2021/08/28 06:09:59;;;;;;;;;;;12.50;99.90;;;;;;5018016;28;19940;-73
2021/08/28 06:12:35;;;;;;;;;;;12.50;99.90;;;;;;5015988;28;19929;-73
2021/08/28 06:15:25;;;;;;;;;;;12.50;99.90;;;;;;5031848;28;20015;-74
2021/08/28 06:18:00;;;;;;;;;;;12.50;99.90;;;;;;5013997;28;20011;-74
2021/08/28 06:20:26;;;;;;;;;;;12.50;99.90;;;;;;5014050;28;19925;-74
2021/08/28 06:22:53;;;;;;;;;;;12.50;99.90;;;;;;5014152;28;19933;-73
2021/08/28 06:25:29;;;;;;;;;;;12.60;99.90;;;;;;5013785;28;20351;-74
2021/08/28 06:27:56;;;;;;;;;;;12.50;99.90;;;;;;4997482;28;20303;-73
2021/08/28 06:30:34;;;;;;;;;;;12.60;99.90;;;;;;5014025;28;19932;-74
2021/08/28 06:33:01;;;;;;;;;;;12.60;99.90;;;;;;5014131;28;20023;-74
2021/08/28 06:35:33;;;;;;;;;;;12.60;99.90;;;;;;5013924;28;19925;-74
2021/08/28 06:38:07;;;;;;;;;;;12.70;99.90;;;;;;5014049;28;19925;-74
2021/08/28 06:41:14;;;;;;;;;;;12.70;99.90;;;;;;5031485;28;19929;-74
2021/08/28 06:44:04;;;;;;;;;;;12.90;99.90;;;;;;5031833;28;20442;-73
2021/08/28 06:46:50;;;;;;;;;;;13.00;99.90;;;;;;5031492;28;19932;-73
2021/08/28 06:49:40;;;;;;;;;;;13.00;99.90;;;;;;5033864;28;20026;-73
2021/08/28 06:52:25;;;;;;;;;;;13.00;99.90;;;;;;5035993;28;19972;-73
2021/08/28 06:55:16;;;;;;;;;;;13.00;99.90;;;;;;5034898;28;20415;-73
2021/08/28 06:58:11;;;;;;;;;;;13.10;99.90;;;;;;5006888;28;19925;-74
2021/08/28 07:01:01;;;;;;;;;;;13.10;99.90;;;;;;5021176;28;19971;-72
2021/08/28 07:03:46;;;;;;;;;;;13.10;99.90;;;;;;5020729;28;19932;-73
2021/08/28 07:06:34;;;;;;;;;;;13.10;99.90;;;;;;5017046;28;20032;-74
2021/08/28 07:09:05;;;;;;;;;;;13.20;99.90;;;;;;5018185;28;20012;-74
2021/08/28 07:11:37;;;;;;;;;;;13.20;99.90;;;;;;5017534;28;19925;-74
2021/08/28 07:14:09;;;;;;;;;;;13.30;99.90;;;;;;5017610;28;19970;-73
2021/08/28 07:16:40;;;;;;;;;;;13.30;99.90;;;;;;5034653;28;19953;-74
2021/08/28 07:19:12;;;;;;;;;;;13.40;99.90;;;;;;5018144;28;20039;-73
2021/08/28 07:21:44;;;;;;;;;;;13.30;99.90;;;;;;5017208;28;19931;-74
2021/08/28 07:24:15;;;;;;;;;;;13.40;99.90;;;;;;5017264;28;19965;-73
2021/08/28 07:26:47;;;;;;;;;;;13.50;99.90;;;;;;5001455;28;20303;-72
2021/08/28 07:29:36;;;;;;;;;;;13.50;99.90;;;;;;5016953;28;19976;-73
2021/08/28 07:32:03;;;;;;;;;;;13.60;99.90;;;;;;5016866;28;19961;-73
2021/08/28 07:34:36;;;;;;;;;;;13.70;99.90;;;;;;5017032;28;20384;-74
2021/08/28 07:37:08;;;;;;;;;;;13.70;99.90;;;;;;5016514;28;19926;-73
2021/08/28 07:39:40;;;;;;;;;;;13.80;99.90;;;;;;5017166;28;19929;-73
2021/08/28 07:42:11;;;;;;;;;;;13.80;99.90;;;;;;5001461;28;20398;-73
2021/08/28 07:44:43;;;;;;;;;;;13.80;99.90;;;;;;5001579;28;19932;-74
2021/08/28 07:47:16;;;;;;;;;;;13.80;99.90;;;;;;5016482;28;19972;-74
2021/08/28 07:49:47;;;;;;;;;;;13.80;99.90;;;;;;5016417;28;20008;-74
2021/08/28 07:52:19;;;;;;;;;;;13.80;99.90;;;;;;5016695;28;20317;-73
2021/08/28 07:54:46;;;;;;;;;;;13.80;99.90;;;;;;5016626;28;19928;-73
2021/08/28 07:57:15;;;;;;;;;;;13.90;99.90;;;;;;5015996;28;19979;-73
2021/08/28 07:59:47;;;;;;;;;;;14.10;99.90;;;;;;5000653;28;19925;-73
2021/08/28 08:02:19;;;;;;;;;;;14.20;99.90;;;;;;5016552;28;19929;-73
2021/08/28 08:04:46;;;;;;;;;;;14.20;99.90;;;;;;5016316;28;19925;-73
2021/08/28 08:07:37;;;;;;;;;;;14.20;99.90;;;;;;5020058;28;20285;-73
2021/08/28 08:10:29;;;;;;;;;;;14.10;99.90;;;;;;5006432;28;19929;-73
2021/08/28 08:13:33;;;;;;;;;;;14.10;99.90;;;;;;5021591;28;19925;-74
2021/08/28 08:16:18;;;;;;;;;;;14.00;99.90;;;;;;5034014;28;20470;-73
2021/08/28 08:19:03;;;;;;;;;;;14.10;99.90;;;;;;5015977;28;19925;-73
2021/08/28 08:22:07;;;;;;;;;;;14.00;99.90;;;;;;5033096;28;19925;-73
2021/08/28 08:24:44;;;;;;;;;;;13.90;99.90;;;;;;5015978;28;20312;-73
2021/08/28 08:27:35;;;;;;;;;;;14.00;99.90;;;;;;5033803;28;19932;-73
2021/08/28 08:30:29;;;;;;;;;;;14.00;99.90;;;;;;5012130;28;20007;-73
2021/08/28 08:33:16;;;;;;;;;;;14.00;99.90;;;;;;5015888;28;19976;-73
2021/08/28 08:35:43;;;;;;;;;;;14.10;99.90;;;;;;4999500;28;20024;-73
2021/08/28 08:38:09;;;;;;;;;;;14.10;99.90;;;;;;5015645;28;19980;-73
2021/08/28 08:40:41;;;;;;;;;;;14.10;99.90;;;;;;5033432;28;19964;-73
2021/08/28 08:43:13;;;;;;;;;;;14.00;99.90;;;;;;5015822;28;19934;-73
2021/08/28 08:45:41;;;;;;;;;;;13.90;99.90;;;;;;5015465;28;19975;-72
2021/08/28 08:48:13;;;;;;;;;;;13.90;99.90;;;;;;5015844;28;19932;-73
2021/08/28 08:50:41;;;;;;;;;;;13.90;99.90;;;;;;5016408;28;19929;-73
2021/08/28 08:53:09;;;;;;;;;;;13.90;99.90;;;;;;4999432;28;19925;-73
2021/08/28 08:55:45;;;;;;;;;;;13.90;99.90;;;;;;5007739;28;19925;-73
2021/08/28 08:58:14;;;;;;;;;;;13.90;99.90;;;;;;4999206;28;19925;-72
2021/08/28 09:00:43;;;;;;;;;;;13.90;99.90;;;;;;5015727;28;19929;-74
2021/08/28 09:03:35;;;;;;;;;;;13.90;99.90;;;;;;5031519;28;19925;-73
2021/08/28 09:06:10;;;;;;;;;;;14.00;99.90;;;;;;5014936;28;20016;-73
2021/08/28 09:08:40;;;;;;;;;;;14.00;99.90;;;;;;5015149;28;19936;-73
2021/08/28 09:11:22;;;;;;;;;;;14.10;99.90;;;;;;5014824;28;20012;-74
2021/08/28 09:14:13;;;;;;;;;;;14.10;99.90;;;;;;5015087;28;20031;-73
2021/08/28 09:16:46;;;;;;;;;;;14.20;99.90;;;;;;5014933;28;20376;-74
2021/08/28 09:19:18;;;;;;;;;;;14.30;99.90;;;;;;5016142;28;19925;-74
2021/08/28 09:21:49;;;;;;;;;;;14.40;99.90;;;;;;5014961;28;20032;-73
2021/08/28 09:24:21;;;;;;;;;;;14.60;99.90;;;;;;5032684;28;19925;-73
2021/08/28 09:26:53;;;;;;;;;;;14.80;99.90;;;;;;5014610;28;20039;-73
2021/08/28 09:29:24;;;;;;;;;;;14.90;99.90;;;;;;5014791;28;19932;-72
2021/08/28 09:31:54;;;;;;;;;;;14.90;99.90;;;;;;4998590;28;19925;-73
2021/08/28 09:34:27;;;;;;;;;;;14.90;99.90;;;;;;5015972;28;19932;-73
2021/08/28 09:36:58;;;;;;;;;;;15.00;99.90;;;;;;5014419;28;20024;-72
2021/08/28 09:39:49;;;;;;;;;;;15.10;99.90;;;;;;5014601;28;19935;-73
2021/08/28 09:42:22;;;;;;;;;;;15.30;99.90;;;;;;5032324;28;19929;-73
2021/08/28 09:44:49;;;;;;;;;;;15.50;99.90;;;;;;5014654;28;19929;-73
2021/08/28 09:47:22;;;;;;;;;;;15.60;99.90;;;;;;5032141;28;20031;-74
2021/08/28 09:49:50;;;;;;;;;;;15.80;99.90;;;;;;5014826;28;20365;-73
2021/08/28 09:52:23;;;;;;;;;;;15.90;99.90;;;;;;4999020;28;19964;-73
2021/08/28 09:54:55;;;;;;;;;;;16.00;99.90;;;;;;5014456;28;19925;-73
2021/08/28 09:57:28;;;;;;;;;;;15.80;99.90;;;;;;5014278;28;20008;-73
2021/08/28 10:00:00;;;;;;;;;;;15.80;99.90;;;;;;5015358;28;19936;-73
2021/08/28 10:02:37;;;;;;;;;;;15.60;99.90;;;;;;5016118;28;19979;-73
2021/08/28 10:05:04;;;;;;;;;;;15.60;99.90;;;;;;5014370;28;20015;-73
2021/08/28 10:07:37;;;;;;;;;;;15.50;99.90;;;;;;4998702;28;19935;-73
2021/08/28 10:10:09;;;;;;;;;;;15.40;99.90;;;;;;5014155;28;20020;-73
2021/08/28 10:12:41;;;;;;;;;;;15.30;99.90;;;;;;5014202;28;20003;-74
2021/08/28 10:15:14;;;;;;;;;;;15.30;99.90;;;;;;5015052;28;19925;-73
2021/08/28 10:17:41;;;;;;;;;;;15.30;99.90;;;;;;5014301;28;20018;-73
2021/08/28 10:20:14;;;;;;;;;;;15.20;99.90;;;;;;5031915;28;19929;-72
2021/08/28 10:22:41;;;;;;;;;;;15.30;99.90;;;;;;5014932;28;19925;-73
2021/08/28 10:25:10;;;;;;;;;;;15.40;99.90;;;;;;5018146;28;19929;-72
2021/08/28 10:27:41;;;;;;;;;;;15.50;99.90;;;;;;5019066;28;20307;-72
2021/08/28 10:30:09;;;;;;;;;;;15.50;99.90;;;;;;5035819;28;19973;-74
2021/08/28 10:32:36;;;;;;;;;;;15.60;99.90;;;;;;5018084;28;19933;-73
2021/08/28 10:35:08;;;;;;;;;;;15.50;99.90;;;;;;5018731;28;20430;-73
2021/08/28 10:37:35;;;;;;;;;;;15.30;99.90;;;;;;5018101;28;20447;-73
2021/08/28 10:40:10;;;;;;;;;;;15.20;99.90;;;;;;5018954;28;19987;-72
2021/08/28 10:42:42;;;;;;;;;;;15.00;99.90;;;;;;5018010;28;20023;-73
2021/08/28 10:45:09;;;;;;;;;;;14.90;99.90;;;;;;5017722;28;20022;-73
2021/08/28 10:47:55;;;;;;;;;;;14.80;99.90;;;;;;5017788;28;19929;-73
2021/08/28 10:50:22;;;;;;;;;;;14.80;99.90;;;;;;5017733;28;19987;-73
2021/08/28 10:52:49;;;;;;;;;;;14.70;99.90;;;;;;5035664;28;20016;-73
2021/08/28 10:55:16;;;;;;;;;;;14.70;99.90;;;;;;5017365;28;19960;-73
2021/08/28 10:58:08;;;;;;;;;;;14.80;99.90;;;;;;5018532;28;19925;-73
2021/08/28 11:00:45;;;;;;;;;;;15.00;99.90;;;;;;5017834;28;20021;-73
2021/08/28 11:03:23;;;;;;;;;;;15.00;99.90;;;;;;5035347;28;20031;-73
2021/08/28 11:06:13;;;;;;;;;;;15.00;99.90;;;;;;5035030;28;19947;-73
2021/08/28 11:08:56;;;;;;;;;;;15.10;99.90;;;;;;5035200;28;19968;-72
2021/08/28 11:11:39;;;;;;;;;;;15.20;99.90;;;;;;5017522;28;20347;-73
2021/08/28 11:14:07;;;;;;;;;;;15.20;99.90;;;;;;5017544;28;20400;-72
2021/08/28 11:16:39;;;;;;;;;;;15.30;99.90;;;;;;5034926;28;19987;-74
2021/08/28 11:19:06;;;;;;;;;;;15.30;99.90;;;;;;5017380;28;20023;-73
2021/08/28 11:21:47;;;;;;;;;;;15.30;99.90;;;;;;5035179;28;20012;-73
2021/08/28 11:24:20;;;;;;;;;;;15.10;99.90;;;;;;5034954;28;19925;-72
2021/08/28 11:26:53;;;;;;;;;;;15.00;99.90;;;;;;5016648;28;20076;-73
2021/08/28 11:29:28;;;;;;;;;;;15.00;99.90;;;;;;5034647;28;20012;-73
2021/08/28 11:32:22;;;;;;;;;;;15.00;99.90;;;;;;5034903;28;19939;-72
2021/08/28 11:34:57;;;;;;;;;;;15.20;99.90;;;;;;5025881;28;20374;-73
2021/08/28 11:37:23;;;;;;;;;;;15.20;99.90;;;;;;5016720;28;20007;-73
2021/08/28 11:39:50;;;;;;;;;;;15.30;99.90;;;;;;5016783;28;20024;-73
2021/08/28 11:42:22;;;;;;;;;;;15.20;99.90;;;;;;5016863;28;20359;-72
2021/08/28 11:44:55;;;;;;;;;;;15.20;99.90;;;;;;5034572;28;20020;-73
2021/08/28 11:47:27;;;;;;;;;;;15.10;99.90;;;;;;5016564;28;19975;-73
2021/08/28 11:50:06;;;;;;;;;;;15.10;99.90;;;;;;5001175;28;19931;-73
2021/08/28 11:52:38;;;;;;;;;;;15.20;99.90;;;;;;5034512;28;19925;-73
2021/08/28 11:55:10;;;;;;;;;;;15.20;99.90;;;;;;5017112;28;20439;-73
2021/08/28 11:57:42;;;;;;;;;;;15.30;99.90;;;;;;5034258;28;20028;-73
2021/08/28 12:00:26;;;;;;;;;;;15.40;99.90;;;;;;5034532;28;20036;-72
2021/08/28 12:02:57;;;;;;;;;;;15.60;99.90;;;;;;5016754;28;19933;-73
2021/08/28 12:05:30;;;;;;;;;;;15.70;99.90;;;;;;5017240;28;19925;-74
2021/08/28 12:08:02;;;;;;;;;;;15.80;99.90;;;;;;5016310;28;19926;-73
2021/08/28 12:10:40;;;;;;;;;;;15.80;99.90;;;;;;5016380;28;20019;-73
2021/08/28 12:13:12;;;;;;;;;;;15.90;99.90;;;;;;5016304;28;19925;-73
2021/08/28 12:15:44;;;;;;;;;;;15.90;99.90;;;;;;5016063;28;19925;-73
2021/08/28 12:18:24;;;;;;;;;;;16.00;99.90;;;;;;5016342;28;20023;-72
2021/08/28 12:21:09;;;;;;;;;;;15.90;99.90;;;;;;5016992;28;19971;-73
2021/08/28 12:23:35;;;;;;;;;;;15.90;99.90;;;;;;4999868;28;19967;-75
2021/08/28 12:26:16;;;;;;;;;;;15.90;99.90;;;;;;5033493;28;19960;-73
2021/08/28 12:28:43;;;;;;;;;;;15.70;99.90;;;;;;5033793;28;19932;-72
2021/08/28 12:31:16;;;;;;;;;;;15.70;99.90;;;;;;5034059;28;19925;-72
2021/08/28 12:33:42;;;;;;;;;;;15.60;99.90;;;;;;5016417;28;19956;-73
2021/08/28 12:36:30;;;;;;;;;;;15.50;99.90;;;;;;5015465;28;20023;-73
2021/08/28 12:39:07;;;;;;;;;;;15.40;99.90;;;;;;5033429;28;20020;-72
2021/08/28 12:41:35;;;;;;;;;;;15.30;99.90;;;;;;5015638;28;19972;-73
2021/08/28 12:44:01;;;;;;;;;;;15.30;99.90;;;;;;5033526;28;19949;-73
2021/08/28 12:46:28;;;;;;;;;;;15.10;99.90;;;;;;5014351;28;19925;-73
2021/08/28 12:49:14;;;;;;;;;;;15.00;99.90;;;;;;5015680;28;19925;-74
2021/08/28 12:51:47;;;;;;;;;;;14.80;99.90;;;;;;5033289;28;20008;-73
2021/08/28 12:54:23;;;;;;;;;;;14.50;99.90;;;;;;4999830;28;19929;-72
2021/08/28 12:56:54;;;;;;;;;;;14.20;99.90;;;;;;5015228;28;20016;-75
2021/08/28 12:59:26;;;;;;;;;;;14.10;99.90;;;;;;5015508;28;20015;-73
2021/08/28 13:01:58;;;;;;;;;;;14.10;99.90;;;;;;5016706;28;20227;-72
2021/08/28 13:04:29;;;;;;;;;;;13.90;99.90;;;;;;5015175;28;20028;-72
2021/08/28 13:07:27;;;;;;;;;;;13.90;99.90;;;;;;5015904;28;19925;-73
2021/08/28 13:10:05;;;;;;;;;;;13.90;99.90;;;;;;5031823;28;19925;-72
2021/08/28 13:12:39;;;;;;;;;;;13.80;99.90;;;;;;5015336;28;20008;-72
2021/08/28 13:15:12;;;;;;;;;;;13.80;99.90;;;;;;5015618;28;20020;-73
2021/08/28 13:17:39;;;;;;;;;;;13.80;99.90;;;;;;5015193;28;20483;-72
2021/08/28 13:20:14;;;;;;;;;;;13.80;99.90;;;;;;5032732;28;19935;-74
2021/08/28 13:22:52;;;;;;;;;;;13.90;99.90;;;;;;5015405;28;20016;-73
2021/08/28 13:25:25;;;;;;;;;;;13.90;99.90;;;;;;5015476;28;20024;-74
2021/08/28 13:27:52;;;;;;;;;;;14.00;99.90;;;;;;5032461;28;19964;-73
2021/08/28 13:30:25;;;;;;;;;;;13.90;99.90;;;;;;5032647;28;20302;-74
2021/08/28 13:32:59;;;;;;;;;;;13.90;99.90;;;;;;4999244;28;20027;-73
2021/08/28 13:35:37;;;;;;;;;;;13.90;99.90;;;;;;5015333;28;19933;-73
2021/08/28 13:38:05;;;;;;;;;;;13.70;99.90;;;;;;5014633;28;19975;-73
2021/08/28 13:40:37;;;;;;;;;;;13.70;99.90;;;;;;5015598;28;20019;-72
2021/08/28 13:43:04;;;;;;;;;;;13.70;99.90;;;;;;5014633;28;19932;-73
2021/08/28 13:45:32;;;;;;;;;;;13.80;99.90;;;;;;5014419;28;20347;-73
2021/08/28 13:47:58;;;;;;;;;;;13.80;99.90;;;;;;5014726;28;20407;-72
2021/08/28 13:50:30;;;;;;;;;;;13.90;99.90;;;;;;5014570;28;20404;-73
2021/08/28 13:53:02;;;;;;;;;;;14.00;99.90;;;;;;4998874;28;20008;-73
2021/08/28 13:55:28;;;;;;;;;;;13.90;99.90;;;;;;5031877;28;20036;-73
2021/08/28 13:58:00;;;;;;;;;;;13.90;99.90;;;;;;5014347;28;20032;-73
2021/08/28 14:00:32;;;;;;;;;;;13.80;99.90;;;;;;5032045;28;19929;-73
2021/08/28 14:03:04;;;;;;;;;;;13.80;99.90;;;;;;5015199;28;19952;-74
2021/08/28 14:05:36;;;;;;;;;;;13.90;99.90;;;;;;5014118;28;19929;-72
2021/08/28 14:08:08;;;;;;;;;;;14.00;99.90;;;;;;4998724;28;19925;-73
2021/08/28 14:10:35;;;;;;;;;;;14.10;99.90;;;;;;5031881;28;20362;-74
2021/08/28 14:13:07;;;;;;;;;;;14.20;99.90;;;;;;5014299;28;19964;-74
2021/08/28 14:15:33;;;;;;;;;;;14.20;99.90;;;;;;5014040;28;20027;-72
2021/08/28 14:18:00;;;;;;;;;;;14.20;99.90;;;;;;5014341;28;19925;-73
2021/08/28 14:20:31;;;;;;;;;;;14.30;99.90;;;;;;5014152;28;19933;-73
2021/08/28 14:23:03;;;;;;;;;;;14.30;99.90;;;;;;5031938;28;19925;-74
2021/08/28 14:25:35;;;;;;;;;;;14.40;99.90;;;;;;5013869;28;20028;-72
2021/08/28 14:28:06;;;;;;;;;;;14.40;99.90;;;;;;5031636;28;20016;-72
2021/08/28 14:30:38;;;;;;;;;;;14.40;99.90;;;;;;4998467;28;19956;-72
2021/08/28 14:33:10;;;;;;;;;;;14.30;99.90;;;;;;5015051;28;20020;-72
2021/08/28 14:35:42;;;;;;;;;;;14.40;99.90;;;;;;4998407;28;20020;-73
2021/08/28 14:38:14;;;;;;;;;;;14.50;99.90;;;;;;5014809;28;19925;-72
2021/08/28 14:40:46;;;;;;;;;;;14.50;99.90;;;;;;5031885;28;19925;-73
2021/08/28 14:43:17;;;;;;;;;;;14.70;99.90;;;;;;4998461;28;20391;-73
2021/08/28 14:45:49;;;;;;;;;;;15.20;99.90;;;;;;5014592;28;20023;-73
2021/08/28 14:48:21;;;;;;;;;;;15.60;99.90;;;;;;5031702;28;20356;-72
2021/08/28 14:50:47;;;;;;;;;;;15.70;99.90;;;;;;5031347;28;19925;-72
2021/08/28 14:53:19;;;;;;;;;;;15.70;99.90;;;;;;5014788;28;19995;-72
2021/08/28 14:55:51;;;;;;;;;;;15.50;99.90;;;;;;5031411;28;19980;-72
2021/08/28 14:58:22;;;;;;;;;;;15.50;99.90;;;;;;5014754;28;20024;-73